Norton, Virginia
Current Conditions -  °F | °C
As of 10:55 PM on Sunday 23 Nov 2014 (Local Time) from KLNP Reporting Station
Overcast Overcast  
Wind Chill: 55°   Ceiling: 6000
Heat Index: 55°   Visibility: 10mi
Dew Point: 52°   Wind: 14mph
Humidity: 88%   Direction: 160°SSE
Pressure: 29.59"   Gusts: 20mph
Location:  36.93°N, 82.63°W
Report Text: KLNP 240355Z AUTO 16012G17KT 10SM SCT041 SCT048 OVC060 13/11 A2959 RMK AO2
Loading
Personal Weather Stations






























Interactive Weather Map New forecast layout! Learn more

10-Day Weather Forecast

Advertisements
Track Severe Weather on mobile